Карточка аэропорта UWKE

Внимание!
Информация на этой странице в стадии наполнения.
Если вы не увидели какой-то информации, или заметили неточность - пожалуйста сообщите нам!
Спасибо!
Команда RU-STAFF
Название аэропортаБегишево
Название аэропорта (англ.)Begishevo
Превышение643 ft. (196 m.)
Координаты55°33.882', 52°5.5500000000001'
Высота перехода700m
Эшелон переходаQFE>=742mm:FL040; QFE<742=>715:FL050; QFE<715:FL060
Коды ответчика1000
Зона ОрВДСамара РПИ (UWWW)
Данные METARUWKE 220830Z 05006MPS 9999 OVC008 15/14 Q1006 R03/190060 NOSIG RMK OBST OBSC QFE738/0984
Проноз погоды (TAF)UWKE 220755Z 2209/2309 03006G14MPS 9999 OVC006 TEMPO 2209/2215 04007G14MPS 1000 SHRA BR BKN003 BKN020CB BECMG 2215/2216 BKN016 TEMPO 2216/2218 6000 -SHRA BKN011CB TEMPO 2218/2306 0700 FG VV002
NOTAMshow/hide NOTAM
AWOS   TABLE

Информация о ВПП

ВПП Длина ВПП (м.) Покрытие Курс ВПП Частота ILS
032502Асфальтобетон34 
212502Асфальтобетон214109.9

Диспетчерские позиции

Позывной Наименование органа УВД Частота
UWKE_R_APPБегишево-Круг127.900
UWKE_TWRБегишево-Вышка121.200



Спутниковое изображение